Tropical Cyclones
[Index]
Season 2020-2021 Tropical Cyclone DANILO Track Map
Season 2020-2021 Summaries (Operational Data): [AU] [SIO] [SPAC] [SH]
<<- Previous TC | 2020-2021 Season | Next TC ->>

click for intensity scale information  Lat/long Grid: Show Hide

 Date Labels: Show Hide

Operational Tropical Cyclone Data

Name: DANILO
Number: 2108

28 Dec 2020 06:00 UTC to 12 Jan 2021 06:00 UTC

    date/time    lat    long     hPa   cat  kts
2020-12-28 06    9.9    68.7    1010         15          
2020-12-28 12    9.9    68.7    1010         15          
2020-12-28 18    9.8    70.1    1010         15          
2020-12-29 00    9.7    71.3    1009         20          
2020-12-29 06   10.4    70.5    1007         20          
2020-12-29 12   10.7    71.8    1007         20          
2020-12-29 18   10.9    72.7    1007         20          
2020-12-30 00   11.4    72.8    1007         20          
2020-12-30 06   11.7    72.7    1006         20          
2020-12-30 12   12.0    72.6    1007         20          
2020-12-30 18   12.1    72.3    1006         20          
2020-12-31 00   12.3    72.1    1003         20          
2020-12-31 06   12.1    72.4    1004         20          
2020-12-31 12   11.9    72.5    1004         20          
2020-12-31 18   12.0    72.6    1003         20          
2021-01-01 00   12.2    72.6    1002         20          
2021-01-01 06   12.0    72.2    1002         25          
2021-01-01 12   11.6    72.0     998         30          
2021-01-01 18   11.2    71.9    1000    1    35          
2021-01-02 00   10.9    72.0    1000    1    35          
2021-01-02 06   10.9    72.2     995    1    40          
2021-01-02 12   11.0    72.3     994    1    40          
2021-01-02 18   11.1    72.4     994    1    40          
2021-01-03 00   11.3    72.8     989    1    45          
2021-01-03 06   11.5    73.4     987    2    50          
2021-01-03 12   12.0    74.3     984    2    50          
2021-01-03 18   12.8    75.3     984    2    50          
2021-01-04 00   13.8    75.8     985    2    50          
2021-01-04 06   14.7    76.1     993    1    45          
2021-01-04 12   15.4    76.2     990    1    45          
2021-01-04 18   15.7    76.3     993    1    45          
2021-01-05 00   16.1    76.6     984    2    55          
2021-01-05 06   16.4    76.6     982    2    55          
2021-01-05 12   16.5    76.6     979    2    60          
2021-01-05 18   16.6    76.5     987    2    55          
2021-01-06 00   16.6    76.0     989    1    45          
2021-01-06 06   16.5    75.3     994    1    35          
2021-01-06 12   16.4    74.5     996         30          
2021-01-06 18   16.3    73.6    1000         30          
2021-01-07 00   16.3    72.7    1000         30          
2021-01-07 06   16.3    71.4    1000         30          
2021-01-07 12   16.7    70.2     998         30          
2021-01-07 18   16.7    69.0     996    1    35          
2021-01-08 00   17.2    68.0     995    1    35          
2021-01-08 06   17.6    67.3    1000         30          
2021-01-08 12   18.0    66.6     998         25          
2021-01-08 18   18.2    65.6    1000         25          
2021-01-09 00   18.4    64.2    1002         20          
2021-01-09 06   17.2    63.7    1002         20          
2021-01-09 12   18.2    63.3    1003         20          
2021-01-09 18   18.3    62.1    1004         20          
2021-01-10 00   19.0    60.6    1007         20          
2021-01-10 06   19.3    60.2    1007         20          
2021-01-10 12   19.4    59.4    1007         20          
2021-01-10 18   19.5    59.0    1007         20          
2021-01-11 00   19.5    58.7    1005         20          
2021-01-11 06   19.8    57.8    1005         20          
2021-01-11 12   20.0    57.0    1005         20          
2021-01-11 18   19.9    56.7    1007         20          
2021-01-12 00   19.6    56.1    1007         20          
2021-01-12 06   19.2    55.5    1007         20          
Winds were reported as (or converted to) 10-min average.

Tropical cyclone tracks developed by Michael Bath using operational warnings and advisories and Google Maps.


Document: tropical_cyclone_danilo.htm
Updated: 7 May 2021
[Australian Severe Weather index] [Copyright Notice] [Email Contacts] [Search This Site] [Privacy Policy]


Main Index Home Page Stock Weather Photos Extreme Storms Discussion Storm News and Storm Chasing Reports Tropical Cyclones / Hurricanes / Typhoons Weather Data and Links Wild Fires / Bushfires Weather Observation Techniques Weather Picture Catalogue Tornado Pictures and Reports Stock Video Footage and DVDs for sale